AIC6ML VABB-VAAH
Flight info
| Callsign | AIC6ML |
|---|---|
| Flight time | N/A |
| Altitude | 31000 |
| Route | ANOL2AXISRIS/27 ISRIS G208 APANO APANO1A |
| Aircraft | A21N/M-SDE3FGHIRWY/LB1 |
Departure
| Time | N/A |
|---|---|
| Airport | Chhatrapati Shivaji Maharaj International Airport (VABB) |
Arrival
| Time | 2026-04-21 11:22 |
|---|---|
| Airport | Sardar Vallabh Patel International Airport (VAAH) |
| Time | Latitude | Longitude | Altitude | Speed | Heading |
|---|---|---|---|---|---|
| 2026-04-21 11:22 | 23.08771 | 72.64555 | 194 ft | 13 kts | 213° |
| 2026-04-21 11:22 | 23.08696 | 72.64481 | 193 ft | 15 kts | 225° |
| 2026-04-21 11:22 | 23.08618 | 72.64396 | 192 ft | 15 kts | 226° |
| 2026-04-21 11:22 | 23.08540 | 72.64307 | 192 ft | 16 kts | 227° |
| 2026-04-21 11:23 | 23.08461 | 72.64218 | 192 ft | 16 kts | 226° |
| 2026-04-21 11:23 | 23.08378 | 72.64127 | 191 ft | 16 kts | 226° |
| 2026-04-21 11:23 | 23.08295 | 72.64036 | 191 ft | 16 kts | 226° |
| 2026-04-21 11:23 | 23.08214 | 72.63946 | 191 ft | 16 kts | 226° |
| 2026-04-21 11:24 | 23.08132 | 72.63852 | 191 ft | 16 kts | 227° |
| 2026-04-21 11:24 | 23.08051 | 72.63757 | 190 ft | 16 kts | 223° |
| 2026-04-21 11:24 | 23.07965 | 72.63670 | 190 ft | 16 kts | 224° |
| 2026-04-21 11:24 | 23.07879 | 72.63579 | 189 ft | 17 kts | 225° |
| 2026-04-21 11:25 | 23.07795 | 72.63487 | 189 ft | 17 kts | 225° |
| 2026-04-21 11:25 | 23.07727 | 72.63381 | 189 ft | 17 kts | 251° |
| 2026-04-21 11:25 | 23.07692 | 72.63254 | 188 ft | 17 kts | 255° |
| 2026-04-21 11:25 | 23.07660 | 72.63129 | 188 ft | 16 kts | 250° |
| 2026-04-21 11:26 | 23.07582 | 72.63040 | 188 ft | 16 kts | 225° |
| 2026-04-21 11:26 | 23.07503 | 72.62954 | 188 ft | 16 kts | 226° |
| 2026-04-21 11:26 | 23.07455 | 72.62872 | 188 ft | 11 kts | 267° |
| 2026-04-21 11:26 | 23.07497 | 72.62797 | 188 ft | 12 kts | 309° |
| 2026-04-21 11:27 | 23.07492 | 72.62718 | 188 ft | 11 kts | 227° |
| 2026-04-21 11:27 | 23.07485 | 72.62650 | 188 ft | 5 kts | 306° |
| 2026-04-21 11:27 | 23.07501 | 72.62628 | 188 ft | 2 kts | 309° |
| 2026-04-21 11:27 | 23.07512 | 72.62614 | 188 ft | 0 kts | 315° |
| 2026-04-21 11:28 | 23.07515 | 72.62611 | 188 ft | 0 kts | 315° |
| 2026-04-21 11:28 | 23.07516 | 72.62611 | 188 ft | 0 kts | 315° |